sensor_id;sensor_type;location;lat;lon;timestamp;P1;durP1;ratioP1;P2;durP2;ratioP2
22026;SDS011;11177;50.966;10.070;2023-05-03T00:00:15;6.10;;;4.20;;
22026;SDS011;11177;50.966;10.070;2023-05-03T00:02:43;6.70;;;4.63;;
22026;SDS011;11177;50.966;10.070;2023-05-03T00:05:10;7.40;;;4.15;;
22026;SDS011;11177;50.966;10.070;2023-05-03T00:07:38;9.68;;;4.75;;
22026;SDS011;11177;50.966;10.070;2023-05-03T00:10:07;9.32;;;4.75;;
22026;SDS011;11177;50.966;10.070;2023-05-03T00:12:37;8.65;;;4.47;;
22026;SDS011;11177;50.966;10.070;2023-05-03T00:15:05;10.32;;;4.60;;
22026;SDS011;11177;50.966;10.070;2023-05-03T00:17:32;6.75;;;4.40;;
22026;SDS011;11177;50.966;10.070;2023-05-03T00:19:59;9.48;;;3.88;;
22026;SDS011;11177;50.966;10.070;2023-05-03T00:22:27;8.10;;;4.38;;
22026;SDS011;11177;50.966;10.070;2023-05-03T00:24:54;8.02;;;4.45;;
22026;SDS011;11177;50.966;10.070;2023-05-03T00:27:21;8.63;;;4.60;;
22026;SDS011;11177;50.966;10.070;2023-05-03T00:29:50;6.60;;;4.20;;
22026;SDS011;11177;50.966;10.070;2023-05-03T00:32:20;6.50;;;4.63;;
22026;SDS011;11177;50.966;10.070;2023-05-03T00:34:56;9.68;;;4.80;;
22026;SDS011;11177;50.966;10.070;2023-05-03T00:37:23;12.65;;;5.22;;
22026;SDS011;11177;50.966;10.070;2023-05-03T00:39:51;9.32;;;5.20;;
22026;SDS011;11177;50.966;10.070;2023-05-03T00:42:18;7.22;;;4.78;;
22026;SDS011;11177;50.966;10.070;2023-05-03T00:44:45;9.27;;;5.07;;
22026;SDS011;11177;50.966;10.070;2023-05-03T00:47:11;7.63;;;5.07;;
22026;SDS011;11177;50.966;10.070;2023-05-03T00:49:39;9.93;;;5.32;;
22026;SDS011;11177;50.966;10.070;2023-05-03T00:52:07;8.90;;;4.68;;
22026;SDS011;11177;50.966;10.070;2023-05-03T00:54:34;8.38;;;4.57;;
22026;SDS011;11177;50.966;10.070;2023-05-03T00:57:01;7.95;;;4.45;;
22026;SDS011;11177;50.966;10.070;2023-05-03T00:59:31;8.60;;;4.70;;
22026;SDS011;11177;50.966;10.070;2023-05-03T01:01:58;10.05;;;4.50;;
22026;SDS011;11177;50.966;10.070;2023-05-03T01:04:25;8.10;;;4.70;;
22026;SDS011;11177;50.966;10.070;2023-05-03T01:09:45;8.52;;;5.15;;
22026;SDS011;11177;50.966;10.070;2023-05-03T01:18:23;9.45;;;4.47;;
22026;SDS011;11177;50.966;10.070;2023-05-03T01:20:54;11.68;;;4.65;;
22026;SDS011;11177;50.966;10.070;2023-05-03T01:24:06;7.43;;;4.53;;
22026;SDS011;11177;50.966;10.070;2023-05-03T01:26:48;7.30;;;4.07;;
22026;SDS011;11177;50.966;10.070;2023-05-03T01:29:15;13.02;;;4.30;;
22026;SDS011;11177;50.966;10.070;2023-05-03T01:31:52;6.68;;;4.20;;
22026;SDS011;11177;50.966;10.070;2023-05-03T01:34:43;7.47;;;4.60;;
22026;SDS011;11177;50.966;10.070;2023-05-03T01:37:16;8.23;;;4.55;;
22026;SDS011;11177;50.966;10.070;2023-05-03T01:39:50;9.32;;;4.70;;
22026;SDS011;11177;50.966;10.070;2023-05-03T01:42:20;8.23;;;4.38;;
22026;SDS011;11177;50.966;10.070;2023-05-03T01:44:49;8.68;;;5.00;;
22026;SDS011;11177;50.966;10.070;2023-05-03T01:47:17;12.13;;;4.90;;
22026;SDS011;11177;50.966;10.070;2023-05-03T01:49:43;8.75;;;4.72;;
22026;SDS011;11177;50.966;10.070;2023-05-03T01:52:10;7.45;;;4.80;;
22026;SDS011;11177;50.966;10.070;2023-05-03T01:54:37;7.18;;;4.50;;
22026;SDS011;11177;50.966;10.070;2023-05-03T01:57:04;7.72;;;4.60;;
22026;SDS011;11177;50.966;10.070;2023-05-03T01:59:30;8.60;;;4.55;;
22026;SDS011;11177;50.966;10.070;2023-05-03T02:01:57;5.85;;;4.32;;
22026;SDS011;11177;50.966;10.070;2023-05-03T02:04:24;6.97;;;4.40;;
22026;SDS011;11177;50.966;10.070;2023-05-03T02:06:50;7.72;;;4.88;;
22026;SDS011;11177;50.966;10.070;2023-05-03T02:09:17;7.68;;;4.28;;
22026;SDS011;11177;50.966;10.070;2023-05-03T02:11:44;6.30;;;4.80;;
22026;SDS011;11177;50.966;10.070;2023-05-03T02:14:11;8.07;;;4.47;;
22026;SDS011;11177;50.966;10.070;2023-05-03T02:16:38;10.40;;;4.38;;
22026;SDS011;11177;50.966;10.070;2023-05-03T02:19:05;9.75;;;4.35;;
22026;SDS011;11177;50.966;10.070;2023-05-03T02:21:33;8.60;;;4.68;;
22026;SDS011;11177;50.966;10.070;2023-05-03T02:24:02;7.43;;;4.43;;
22026;SDS011;11177;50.966;10.070;2023-05-03T02:26:29;11.30;;;4.60;;
22026;SDS011;11177;50.966;10.070;2023-05-03T02:28:55;8.43;;;4.40;;
22026;SDS011;11177;50.966;10.070;2023-05-03T02:31:23;10.05;;;4.93;;
22026;SDS011;11177;50.966;10.070;2023-05-03T02:33:50;6.47;;;4.25;;
22026;SDS011;11177;50.966;10.070;2023-05-03T02:36:17;8.55;;;4.38;;
22026;SDS011;11177;50.966;10.070;2023-05-03T02:38:44;7.82;;;4.57;;
22026;SDS011;11177;50.966;10.070;2023-05-03T02:41:11;7.22;;;4.43;;
22026;SDS011;11177;50.966;10.070;2023-05-03T02:43:37;5.85;;;4.28;;
22026;SDS011;11177;50.966;10.070;2023-05-03T02:46:04;9.40;;;4.43;;
22026;SDS011;11177;50.966;10.070;2023-05-03T02:48:31;6.78;;;4.40;;
22026;SDS011;11177;50.966;10.070;2023-05-03T02:50:58;9.88;;;4.85;;
22026;SDS011;11177;50.966;10.070;2023-05-03T02:53:24;8.77;;;4.70;;
22026;SDS011;11177;50.966;10.070;2023-05-03T02:55:51;6.00;;;4.40;;
22026;SDS011;11177;50.966;10.070;2023-05-03T02:58:18;6.90;;;4.47;;
22026;SDS011;11177;50.966;10.070;2023-05-03T03:00:45;9.25;;;4.50;;
22026;SDS011;11177;50.966;10.070;2023-05-03T03:03:11;6.70;;;4.15;;
22026;SDS011;11177;50.966;10.070;2023-05-03T03:05:38;7.93;;;4.57;;
22026;SDS011;11177;50.966;10.070;2023-05-03T03:08:05;7.13;;;4.60;;
22026;SDS011;11177;50.966;10.070;2023-05-03T03:10:32;10.52;;;4.53;;
22026;SDS011;11177;50.966;10.070;2023-05-03T03:12:59;6.88;;;4.80;;
22026;SDS011;11177;50.966;10.070;2023-05-03T03:15:26;6.32;;;4.50;;
22026;SDS011;11177;50.966;10.070;2023-05-03T03:17:53;6.43;;;4.65;;
22026;SDS011;11177;50.966;10.070;2023-05-03T03:20:23;7.05;;;4.35;;
22026;SDS011;11177;50.966;10.070;2023-05-03T03:22:49;7.18;;;4.55;;
22026;SDS011;11177;50.966;10.070;2023-05-03T03:25:16;9.60;;;4.63;;
22026;SDS011;11177;50.966;10.070;2023-05-03T03:27:43;5.22;;;3.95;;
22026;SDS011;11177;50.966;10.070;2023-05-03T03:30:10;5.85;;;3.90;;
22026;SDS011;11177;50.966;10.070;2023-05-03T03:32:37;6.38;;;4.20;;
22026;SDS011;11177;50.966;10.070;2023-05-03T03:35:04;6.03;;;4.28;;
22026;SDS011;11177;50.966;10.070;2023-05-03T03:37:31;8.85;;;4.80;;
22026;SDS011;11177;50.966;10.070;2023-05-03T03:39:57;10.68;;;4.82;;
22026;SDS011;11177;50.966;10.070;2023-05-03T03:42:24;12.75;;;5.38;;
22026;SDS011;11177;50.966;10.070;2023-05-03T03:44:51;7.88;;;4.70;;
22026;SDS011;11177;50.966;10.070;2023-05-03T03:47:18;8.70;;;4.78;;
22026;SDS011;11177;50.966;10.070;2023-05-03T03:49:45;8.35;;;5.00;;
22026;SDS011;11177;50.966;10.070;2023-05-03T03:52:12;8.63;;;4.90;;
22026;SDS011;11177;50.966;10.070;2023-05-03T03:54:38;9.13;;;4.90;;
22026;SDS011;11177;50.966;10.070;2023-05-03T03:57:05;7.68;;;4.82;;
22026;SDS011;11177;50.966;10.070;2023-05-03T03:59:32;7.85;;;5.25;;
22026;SDS011;11177;50.966;10.070;2023-05-03T04:01:59;9.43;;;4.68;;
22026;SDS011;11177;50.966;10.070;2023-05-03T04:04:26;9.70;;;4.85;;
22026;SDS011;11177;50.966;10.070;2023-05-03T04:06:53;11.18;;;5.32;;
22026;SDS011;11177;50.966;10.070;2023-05-03T04:09:20;11.77;;;5.05;;
22026;SDS011;11177;50.966;10.070;2023-05-03T04:11:47;10.00;;;5.38;;
22026;SDS011;11177;50.966;10.070;2023-05-03T04:14:14;9.95;;;5.60;;
22026;SDS011;11177;50.966;10.070;2023-05-03T04:16:41;11.25;;;5.85;;
22026;SDS011;11177;50.966;10.070;2023-05-03T04:19:07;7.10;;;5.68;;
22026;SDS011;11177;50.966;10.070;2023-05-03T04:21:34;10.63;;;5.85;;
22026;SDS011;11177;50.966;10.070;2023-05-03T04:24:02;8.30;;;5.38;;
22026;SDS011;11177;50.966;10.070;2023-05-03T04:26:31;8.57;;;5.60;;
22026;SDS011;11177;50.966;10.070;2023-05-03T04:28:58;10.15;;;5.15;;
22026;SDS011;11177;50.966;10.070;2023-05-03T04:31:25;10.73;;;5.00;;
22026;SDS011;11177;50.966;10.070;2023-05-03T04:33:52;5.97;;;4.50;;
22026;SDS011;11177;50.966;10.070;2023-05-03T04:36:19;8.98;;;4.68;;
22026;SDS011;11177;50.966;10.070;2023-05-03T04:38:51;5.05;;;4.03;;
22026;SDS011;11177;50.966;10.070;2023-05-03T04:41:17;6.32;;;4.53;;
22026;SDS011;11177;50.966;10.070;2023-05-03T04:43:44;4.93;;;4.18;;
22026;SDS011;11177;50.966;10.070;2023-05-03T04:46:11;5.88;;;4.55;;
22026;SDS011;11177;50.966;10.070;2023-05-03T04:48:38;8.27;;;4.95;;
22026;SDS011;11177;50.966;10.070;2023-05-03T04:51:05;7.65;;;5.22;;
22026;SDS011;11177;50.966;10.070;2023-05-03T04:53:31;8.73;;;5.38;;
22026;SDS011;11177;50.966;10.070;2023-05-03T04:55:58;6.75;;;5.10;;
22026;SDS011;11177;50.966;10.070;2023-05-03T04:58:25;9.48;;;5.65;;
22026;SDS011;11177;50.966;10.070;2023-05-03T05:00:52;10.27;;;5.43;;
22026;SDS011;11177;50.966;10.070;2023-05-03T05:03:19;8.57;;;5.50;;
22026;SDS011;11177;50.966;10.070;2023-05-03T05:05:46;10.75;;;5.93;;
22026;SDS011;11177;50.966;10.070;2023-05-03T05:08:13;12.38;;;5.35;;
22026;SDS011;11177;50.966;10.070;2023-05-03T05:10:40;9.20;;;5.28;;
22026;SDS011;11177;50.966;10.070;2023-05-03T05:13:07;11.07;;;5.40;;
22026;SDS011;11177;50.966;10.070;2023-05-03T05:15:34;7.95;;;5.05;;
22026;SDS011;11177;50.966;10.070;2023-05-03T05:18:01;9.20;;;5.50;;
22026;SDS011;11177;50.966;10.070;2023-05-03T05:20:28;7.00;;;5.13;;
22026;SDS011;11177;50.966;10.070;2023-05-03T05:22:54;11.98;;;5.38;;
22026;SDS011;11177;50.966;10.070;2023-05-03T05:25:21;9.52;;;5.72;;
22026;SDS011;11177;50.966;10.070;2023-05-03T05:27:48;9.32;;;6.10;;
22026;SDS011;11177;50.966;10.070;2023-05-03T05:30:15;9.13;;;6.30;;
22026;SDS011;11177;50.966;10.070;2023-05-03T05:32:41;14.02;;;8.68;;
22026;SDS011;11177;50.966;10.070;2023-05-03T05:35:08;27.38;;;13.57;;
22026;SDS011;11177;50.966;10.070;2023-05-03T05:37:35;24.95;;;11.88;;
22026;SDS011;11177;50.966;10.070;2023-05-03T05:40:02;23.25;;;11.18;;
22026;SDS011;11177;50.966;10.070;2023-05-03T05:42:30;13.27;;;7.75;;
22026;SDS011;11177;50.966;10.070;2023-05-03T05:44:57;12.02;;;7.07;;
22026;SDS011;11177;50.966;10.070;2023-05-03T05:47:24;16.63;;;6.43;;
22026;SDS011;11177;50.966;10.070;2023-05-03T05:49:51;10.95;;;7.28;;
22026;SDS011;11177;50.966;10.070;2023-05-03T05:52:18;12.93;;;7.40;;
22026;SDS011;11177;50.966;10.070;2023-05-03T05:54:45;11.18;;;6.90;;
22026;SDS011;11177;50.966;10.070;2023-05-03T05:57:12;15.57;;;7.35;;
22026;SDS011;11177;50.966;10.070;2023-05-03T05:59:39;12.75;;;6.72;;
22026;SDS011;11177;50.966;10.070;2023-05-03T06:02:07;12.32;;;6.95;;
22026;SDS011;11177;50.966;10.070;2023-05-03T06:04:40;16.00;;;7.07;;
22026;SDS011;11177;50.966;10.070;2023-05-03T06:07:09;13.10;;;5.85;;
22026;SDS011;11177;50.966;10.070;2023-05-03T06:09:36;9.40;;;6.40;;
22026;SDS011;11177;50.966;10.070;2023-05-03T06:12:03;7.78;;;5.88;;
22026;SDS011;11177;50.966;10.070;2023-05-03T06:14:30;9.40;;;6.32;;
22026;SDS011;11177;50.966;10.070;2023-05-03T06:16:56;12.00;;;6.45;;
22026;SDS011;11177;50.966;10.070;2023-05-03T06:19:25;11.98;;;6.22;;
22026;SDS011;11177;50.966;10.070;2023-05-03T06:21:52;8.30;;;6.43;;
22026;SDS011;11177;50.966;10.070;2023-05-03T06:24:18;7.40;;;5.75;;
22026;SDS011;11177;50.966;10.070;2023-05-03T06:26:49;8.23;;;6.28;;
22026;SDS011;11177;50.966;10.070;2023-05-03T06:29:16;9.48;;;5.55;;
22026;SDS011;11177;50.966;10.070;2023-05-03T06:31:43;9.38;;;5.68;;
22026;SDS011;11177;50.966;10.070;2023-05-03T06:34:10;7.80;;;5.30;;
22026;SDS011;11177;50.966;10.070;2023-05-03T06:36:37;10.88;;;5.63;;
22026;SDS011;11177;50.966;10.070;2023-05-03T06:39:04;9.43;;;5.13;;
22026;SDS011;11177;50.966;10.070;2023-05-03T06:41:31;9.18;;;5.15;;
22026;SDS011;11177;50.966;10.070;2023-05-03T06:44:00;8.60;;;5.20;;
22026;SDS011;11177;50.966;10.070;2023-05-03T06:46:27;8.70;;;4.90;;
22026;SDS011;11177;50.966;10.070;2023-05-03T06:48:54;9.45;;;5.18;;
22026;SDS011;11177;50.966;10.070;2023-05-03T06:51:22;7.90;;;3.75;;
22026;SDS011;11177;50.966;10.070;2023-05-03T06:53:53;9.20;;;4.00;;
22026;SDS011;11177;50.966;10.070;2023-05-03T06:56:21;7.70;;;4.00;;
22026;SDS011;11177;50.966;10.070;2023-05-03T06:58:49;7.05;;;3.60;;
22026;SDS011;11177;50.966;10.070;2023-05-03T07:01:16;9.23;;;3.58;;
22026;SDS011;11177;50.966;10.070;2023-05-03T07:03:44;4.68;;;2.92;;
22026;SDS011;11177;50.966;10.070;2023-05-03T07:06:11;7.18;;;3.47;;
22026;SDS011;11177;50.966;10.070;2023-05-03T07:08:38;5.88;;;3.63;;
22026;SDS011;11177;50.966;10.070;2023-05-03T07:11:05;5.85;;;3.55;;
22026;SDS011;11177;50.966;10.070;2023-05-03T07:13:32;7.20;;;3.38;;
22026;SDS011;11177;50.966;10.070;2023-05-03T07:15:58;4.78;;;3.30;;
22026;SDS011;11177;50.966;10.070;2023-05-03T07:18:28;7.60;;;3.85;;
22026;SDS011;11177;50.966;10.070;2023-05-03T07:20:55;5.28;;;3.30;;
22026;SDS011;11177;50.966;10.070;2023-05-03T07:23:22;6.13;;;3.25;;
22026;SDS011;11177;50.966;10.070;2023-05-03T07:25:49;6.03;;;3.47;;
22026;SDS011;11177;50.966;10.070;2023-05-03T07:28:16;10.35;;;3.60;;
22026;SDS011;11177;50.966;10.070;2023-05-03T07:30:42;4.45;;;3.50;;
22026;SDS011;11177;50.966;10.070;2023-05-03T07:33:09;5.97;;;3.20;;
22026;SDS011;11177;50.966;10.070;2023-05-03T07:35:36;8.13;;;3.30;;
22026;SDS011;11177;50.966;10.070;2023-05-03T07:38:03;4.68;;;3.15;;
22026;SDS011;11177;50.966;10.070;2023-05-03T07:40:30;3.63;;;2.80;;
22026;SDS011;11177;50.966;10.070;2023-05-03T07:42:59;7.15;;;3.47;;
22026;SDS011;11177;50.966;10.070;2023-05-03T07:45:25;7.45;;;3.15;;
22026;SDS011;11177;50.966;10.070;2023-05-03T07:47:53;6.30;;;2.63;;
22026;SDS011;11177;50.966;10.070;2023-05-03T07:50:20;6.90;;;2.63;;
22026;SDS011;11177;50.966;10.070;2023-05-03T07:52:48;4.97;;;2.60;;
22026;SDS011;11177;50.966;10.070;2023-05-03T07:55:18;6.93;;;2.97;;
22026;SDS011;11177;50.966;10.070;2023-05-03T07:57:46;7.03;;;3.53;;
22026;SDS011;11177;50.966;10.070;2023-05-03T08:00:13;4.13;;;2.55;;
22026;SDS011;11177;50.966;10.070;2023-05-03T08:02:40;5.18;;;2.70;;
22026;SDS011;11177;50.966;10.070;2023-05-03T08:05:08;5.78;;;3.00;;
22026;SDS011;11177;50.966;10.070;2023-05-03T08:07:36;6.05;;;3.00;;
22026;SDS011;11177;50.966;10.070;2023-05-03T08:10:03;4.65;;;2.70;;
22026;SDS011;11177;50.966;10.070;2023-05-03T08:12:31;7.45;;;2.75;;
22026;SDS011;11177;50.966;10.070;2023-05-03T08:14:58;4.78;;;2.63;;
22026;SDS011;11177;50.966;10.070;2023-05-03T08:17:24;7.03;;;3.13;;
22026;SDS011;11177;50.966;10.070;2023-05-03T08:19:54;3.75;;;2.50;;
22026;SDS011;11177;50.966;10.070;2023-05-03T08:22:24;4.93;;;2.60;;
22026;SDS011;11177;50.966;10.070;2023-05-03T08:24:52;5.25;;;2.60;;
22026;SDS011;11177;50.966;10.070;2023-05-03T08:27:21;6.35;;;2.53;;
22026;SDS011;11177;50.966;10.070;2023-05-03T08:29:50;6.22;;;2.97;;
22026;SDS011;11177;50.966;10.070;2023-05-03T08:32:17;4.25;;;2.40;;
22026;SDS011;11177;50.966;10.070;2023-05-03T08:34:45;5.82;;;2.53;;
22026;SDS011;11177;50.966;10.070;2023-05-03T08:37:11;4.65;;;2.45;;
22026;SDS011;11177;50.966;10.070;2023-05-03T08:39:38;5.68;;;2.97;;
22026;SDS011;11177;50.966;10.070;2023-05-03T08:42:06;4.63;;;2.70;;
22026;SDS011;11177;50.966;10.070;2023-05-03T08:44:36;4.43;;;2.70;;
22026;SDS011;11177;50.966;10.070;2023-05-03T08:47:04;7.25;;;2.80;;
22026;SDS011;11177;50.966;10.070;2023-05-03T08:49:33;4.30;;;2.95;;
22026;SDS011;11177;50.966;10.070;2023-05-03T08:52:01;5.22;;;2.88;;
22026;SDS011;11177;50.966;10.070;2023-05-03T08:54:28;7.32;;;3.10;;
22026;SDS011;11177;50.966;10.070;2023-05-03T08:56:55;4.65;;;2.60;;
22026;SDS011;11177;50.966;10.070;2023-05-03T08:59:21;5.13;;;2.88;;
22026;SDS011;11177;50.966;10.070;2023-05-03T09:01:48;6.82;;;3.15;;
22026;SDS011;11177;50.966;10.070;2023-05-03T09:04:15;4.82;;;2.85;;
22026;SDS011;11177;50.966;10.070;2023-05-03T09:06:43;5.78;;;2.78;;
22026;SDS011;11177;50.966;10.070;2023-05-03T09:09:09;5.22;;;2.60;;
22026;SDS011;11177;50.966;10.070;2023-05-03T09:11:37;5.80;;;3.00;;
22026;SDS011;11177;50.966;10.070;2023-05-03T09:16:42;6.70;;;2.80;;
22026;SDS011;11177;50.966;10.070;2023-05-03T09:19:11;7.35;;;3.10;;
22026;SDS011;11177;50.966;10.070;2023-05-03T09:21:39;4.00;;;2.50;;
22026;SDS011;11177;50.966;10.070;2023-05-03T09:24:16;5.57;;;2.88;;
22026;SDS011;11177;50.966;10.070;2023-05-03T09:26:44;7.22;;;3.10;;
22026;SDS011;11177;50.966;10.070;2023-05-03T09:29:29;5.90;;;2.85;;
22026;SDS011;11177;50.966;10.070;2023-05-03T09:31:57;4.45;;;2.60;;
22026;SDS011;11177;50.966;10.070;2023-05-03T09:34:26;7.00;;;2.78;;
22026;SDS011;11177;50.966;10.070;2023-05-03T09:36:54;7.82;;;3.38;;
22026;SDS011;11177;50.966;10.070;2023-05-03T09:39:20;6.20;;;3.30;;
22026;SDS011;11177;50.966;10.070;2023-05-03T09:41:47;14.70;;;3.25;;
22026;SDS011;11177;50.966;10.070;2023-05-03T09:44:15;7.82;;;2.85;;
22026;SDS011;11177;50.966;10.070;2023-05-03T09:49:29;5.65;;;2.65;;
22026;SDS011;11177;50.966;10.070;2023-05-03T09:52:00;5.97;;;2.67;;
22026;SDS011;11177;50.966;10.070;2023-05-03T09:54:27;4.32;;;2.45;;
22026;SDS011;11177;50.966;10.070;2023-05-03T09:56:56;5.85;;;2.97;;
22026;SDS011;11177;50.966;10.070;2023-05-03T09:59:24;5.20;;;2.80;;
22026;SDS011;11177;50.966;10.070;2023-05-03T10:01:52;3.78;;;3.05;;
22026;SDS011;11177;50.966;10.070;2023-05-03T10:04:22;6.72;;;3.00;;
22026;SDS011;11177;50.966;10.070;2023-05-03T10:06:51;6.80;;;2.60;;
22026;SDS011;11177;50.966;10.070;2023-05-03T10:09:27;5.82;;;2.78;;
22026;SDS011;11177;50.966;10.070;2023-05-03T10:11:58;6.97;;;2.92;;
22026;SDS011;11177;50.966;10.070;2023-05-03T10:14:27;7.65;;;3.67;;
22026;SDS011;11177;50.966;10.070;2023-05-03T10:16:58;7.25;;;2.88;;
22026;SDS011;11177;50.966;10.070;2023-05-03T10:19:28;4.75;;;2.67;;
22026;SDS011;11177;50.966;10.070;2023-05-03T10:22:06;3.85;;;2.40;;
22026;SDS011;11177;50.966;10.070;2023-05-03T10:24:34;4.30;;;2.30;;
22026;SDS011;11177;50.966;10.070;2023-05-03T10:27:02;6.03;;;2.30;;
22026;SDS011;11177;50.966;10.070;2023-05-03T10:32:29;3.22;;;2.17;;
22026;SDS011;11177;50.966;10.070;2023-05-03T10:37:54;3.45;;;2.15;;
22026;SDS011;11177;50.966;10.070;2023-05-03T10:40:22;4.82;;;2.00;;
22026;SDS011;11177;50.966;10.070;2023-05-03T10:42:49;7.03;;;2.10;;
22026;SDS011;11177;50.966;10.070;2023-05-03T10:45:23;5.95;;;2.22;;
22026;SDS011;11177;50.966;10.070;2023-05-03T10:50:36;3.35;;;2.10;;
22026;SDS011;11177;50.966;10.070;2023-05-03T10:53:05;5.15;;;2.08;;
22026;SDS011;11177;50.966;10.070;2023-05-03T10:55:32;5.75;;;2.40;;
22026;SDS011;11177;50.966;10.070;2023-05-03T10:57:59;4.55;;;2.22;;
22026;SDS011;11177;50.966;10.070;2023-05-03T11:00:32;4.30;;;2.45;;
22026;SDS011;11177;50.966;10.070;2023-05-03T11:03:06;5.40;;;2.10;;
22026;SDS011;11177;50.966;10.070;2023-05-03T11:05:36;3.13;;;2.00;;
22026;SDS011;11177;50.966;10.070;2023-05-03T11:08:14;3.90;;;2.40;;
22026;SDS011;11177;50.966;10.070;2023-05-03T11:10:45;4.60;;;2.63;;
22026;SDS011;11177;50.966;10.070;2023-05-03T11:13:13;4.70;;;2.42;;
22026;SDS011;11177;50.966;10.070;2023-05-03T11:15:41;3.67;;;2.22;;
22026;SDS011;11177;50.966;10.070;2023-05-03T11:18:08;8.43;;;2.80;;
22026;SDS011;11177;50.966;10.070;2023-05-03T11:20:39;3.20;;;2.10;;
22026;SDS011;11177;50.966;10.070;2023-05-03T11:23:06;2.38;;;2.17;;
22026;SDS011;11177;50.966;10.070;2023-05-03T11:25:33;4.68;;;2.40;;
22026;SDS011;11177;50.966;10.070;2023-05-03T11:28:00;5.50;;;2.85;;
22026;SDS011;11177;50.966;10.070;2023-05-03T11:30:31;5.07;;;2.53;;
22026;SDS011;11177;50.966;10.070;2023-05-03T11:33:00;5.85;;;2.45;;
22026;SDS011;11177;50.966;10.070;2023-05-03T11:35:28;6.18;;;2.20;;
22026;SDS011;11177;50.966;10.070;2023-05-03T11:37:55;3.47;;;2.38;;
22026;SDS011;11177;50.966;10.070;2023-05-03T11:40:22;9.05;;;2.58;;
22026;SDS011;11177;50.966;10.070;2023-05-03T11:45:30;3.95;;;1.95;;
22026;SDS011;11177;50.966;10.070;2023-05-03T11:47:58;5.00;;;2.28;;
22026;SDS011;11177;50.966;10.070;2023-05-03T11:50:26;7.18;;;2.70;;
22026;SDS011;11177;50.966;10.070;2023-05-03T11:53:08;5.13;;;2.30;;
22026;SDS011;11177;50.966;10.070;2023-05-03T11:55:38;2.90;;;2.00;;
22026;SDS011;11177;50.966;10.070;2023-05-03T11:58:07;4.47;;;2.40;;
22026;SDS011;11177;50.966;10.070;2023-05-03T12:00:37;6.05;;;2.38;;
22026;SDS011;11177;50.966;10.070;2023-05-03T12:03:05;6.10;;;2.30;;
22026;SDS011;11177;50.966;10.070;2023-05-03T12:05:34;3.78;;;2.40;;
22026;SDS011;11177;50.966;10.070;2023-05-03T12:08:01;6.70;;;3.40;;
22026;SDS011;11177;50.966;10.070;2023-05-03T12:10:31;2.90;;;2.10;;
22026;SDS011;11177;50.966;10.070;2023-05-03T12:13:01;7.22;;;2.70;;
22026;SDS011;11177;50.966;10.070;2023-05-03T12:15:31;3.75;;;2.30;;
22026;SDS011;11177;50.966;10.070;2023-05-03T12:18:01;3.88;;;2.15;;
22026;SDS011;11177;50.966;10.070;2023-05-03T12:20:30;6.32;;;2.20;;
22026;SDS011;11177;50.966;10.070;2023-05-03T12:23:01;3.90;;;2.28;;
22026;SDS011;11177;50.966;10.070;2023-05-03T12:25:30;7.40;;;1.90;;
22026;SDS011;11177;50.966;10.070;2023-05-03T12:28:00;4.07;;;2.30;;
22026;SDS011;11177;50.966;10.070;2023-05-03T12:30:32;3.65;;;2.20;;
22026;SDS011;11177;50.966;10.070;2023-05-03T12:32:59;3.88;;;2.00;;
22026;SDS011;11177;50.966;10.070;2023-05-03T12:35:29;3.22;;;2.08;;
22026;SDS011;11177;50.966;10.070;2023-05-03T12:37:59;4.05;;;1.80;;
22026;SDS011;11177;50.966;10.070;2023-05-03T12:40:29;3.05;;;2.10;;
22026;SDS011;11177;50.966;10.070;2023-05-03T12:43:00;4.47;;;2.00;;
22026;SDS011;11177;50.966;10.070;2023-05-03T12:45:27;3.40;;;2.10;;
22026;SDS011;11177;50.966;10.070;2023-05-03T12:47:59;4.68;;;2.20;;
22026;SDS011;11177;50.966;10.070;2023-05-03T12:50:26;5.78;;;2.08;;
22026;SDS011;11177;50.966;10.070;2023-05-03T12:52:57;4.35;;;1.83;;
22026;SDS011;11177;50.966;10.070;2023-05-03T12:55:27;4.80;;;2.20;;
22026;SDS011;11177;50.966;10.070;2023-05-03T12:58:02;3.58;;;1.60;;
22026;SDS011;11177;50.966;10.070;2023-05-03T13:00:50;5.45;;;1.98;;
22026;SDS011;11177;50.966;10.070;2023-05-03T13:03:20;3.03;;;2.08;;
22026;SDS011;11177;50.966;10.070;2023-05-03T13:05:48;5.30;;;2.05;;
22026;SDS011;11177;50.966;10.070;2023-05-03T13:08:15;3.55;;;2.17;;
22026;SDS011;11177;50.966;10.070;2023-05-03T13:10:47;3.85;;;1.90;;
22026;SDS011;11177;50.966;10.070;2023-05-03T13:13:15;4.10;;;1.90;;
22026;SDS011;11177;50.966;10.070;2023-05-03T13:15:42;3.53;;;2.20;;
22026;SDS011;11177;50.966;10.070;2023-05-03T13:18:09;3.85;;;2.00;;
22026;SDS011;11177;50.966;10.070;2023-05-03T13:20:36;4.25;;;2.08;;
22026;SDS011;11177;50.966;10.070;2023-05-03T13:23:03;7.60;;;2.38;;
22026;SDS011;11177;50.966;10.070;2023-05-03T13:25:30;3.33;;;1.80;;
22026;SDS011;11177;50.966;10.070;2023-05-03T13:27:58;4.53;;;2.20;;
22026;SDS011;11177;50.966;10.070;2023-05-03T13:30:27;4.43;;;2.10;;
22026;SDS011;11177;50.966;10.070;2023-05-03T13:32:53;4.47;;;2.00;;
22026;SDS011;11177;50.966;10.070;2023-05-03T13:35:20;3.65;;;2.03;;
22026;SDS011;11177;50.966;10.070;2023-05-03T13:37:47;3.25;;;1.77;;
22026;SDS011;11177;50.966;10.070;2023-05-03T13:40:14;4.53;;;1.70;;
22026;SDS011;11177;50.966;10.070;2023-05-03T13:42:41;1.83;;;1.48;;
22026;SDS011;11177;50.966;10.070;2023-05-03T13:45:08;3.45;;;1.75;;
22026;SDS011;11177;50.966;10.070;2023-05-03T13:47:35;3.05;;;1.75;;
22026;SDS011;11177;50.966;10.070;2023-05-03T13:50:22;5.32;;;1.73;;
22026;SDS011;11177;50.966;10.070;2023-05-03T13:52:49;4.47;;;1.70;;
22026;SDS011;11177;50.966;10.070;2023-05-03T13:55:15;5.22;;;1.70;;
22026;SDS011;11177;50.966;10.070;2023-05-03T13:57:42;3.22;;;1.70;;
22026;SDS011;11177;50.966;10.070;2023-05-03T14:00:10;2.90;;;1.67;;
22026;SDS011;11177;50.966;10.070;2023-05-03T14:02:37;4.05;;;1.42;;
22026;SDS011;11177;50.966;10.070;2023-05-03T14:05:04;3.58;;;1.88;;
22026;SDS011;11177;50.966;10.070;2023-05-03T14:07:32;4.50;;;2.10;;
22026;SDS011;11177;50.966;10.070;2023-05-03T14:09:59;5.30;;;2.10;;
22026;SDS011;11177;50.966;10.070;2023-05-03T14:12:26;3.75;;;1.85;;
22026;SDS011;11177;50.966;10.070;2023-05-03T14:14:53;5.72;;;1.90;;
22026;SDS011;11177;50.966;10.070;2023-05-03T14:17:20;4.32;;;1.75;;
22026;SDS011;11177;50.966;10.070;2023-05-03T14:19:48;3.30;;;1.50;;
22026;SDS011;11177;50.966;10.070;2023-05-03T14:22:15;2.28;;;1.55;;
22026;SDS011;11177;50.966;10.070;2023-05-03T14:24:41;4.20;;;1.92;;
22026;SDS011;11177;50.966;10.070;2023-05-03T14:27:09;5.85;;;2.03;;
22026;SDS011;11177;50.966;10.070;2023-05-03T14:29:36;5.60;;;2.13;;
22026;SDS011;11177;50.966;10.070;2023-05-03T14:32:03;2.33;;;1.70;;
22026;SDS011;11177;50.966;10.070;2023-05-03T14:34:31;4.03;;;1.95;;
22026;SDS011;11177;50.966;10.070;2023-05-03T14:36:57;4.85;;;1.90;;
22026;SDS011;11177;50.966;10.070;2023-05-03T14:39:24;4.15;;;1.80;;
22026;SDS011;11177;50.966;10.070;2023-05-03T14:41:51;3.75;;;1.80;;
22026;SDS011;11177;50.966;10.070;2023-05-03T14:44:21;7.70;;;2.15;;
22026;SDS011;11177;50.966;10.070;2023-05-03T14:46:48;7.15;;;2.25;;
22026;SDS011;11177;50.966;10.070;2023-05-03T14:49:15;2.90;;;1.70;;
22026;SDS011;11177;50.966;10.070;2023-05-03T14:51:43;4.07;;;1.58;;
22026;SDS011;11177;50.966;10.070;2023-05-03T14:54:09;5.32;;;2.05;;
22026;SDS011;11177;50.966;10.070;2023-05-03T14:56:37;5.45;;;1.90;;
22026;SDS011;11177;50.966;10.070;2023-05-03T14:59:03;2.90;;;1.80;;
22026;SDS011;11177;50.966;10.070;2023-05-03T15:01:30;6.35;;;1.83;;
22026;SDS011;11177;50.966;10.070;2023-05-03T15:03:57;3.75;;;1.73;;